createdAt,value
2018-09-27T00:00:44.883Z,54.52
2018-09-27T00:03:14.470Z,54.42
2018-09-27T00:05:43.715Z,54.55
2018-09-27T00:08:14.901Z,54.49
2018-09-27T00:11:01.432Z,54.54
2018-09-27T00:16:21.073Z,54.37
2018-09-27T00:34:55.576Z,54.43
2018-09-27T00:37:43.960Z,52.37
2018-09-27T00:51:45.447Z,55.18
2018-09-27T00:54:43.508Z,55.40
2018-09-27T01:09:38.224Z,53.11
2018-09-27T01:12:26.045Z,54.53
2018-09-27T01:15:28.696Z,55.01
2018-09-27T01:26:57.456Z,55.55
2018-09-27T01:29:40.659Z,53.29
2018-09-27T01:32:43.267Z,54.90
2018-09-27T01:44:31.625Z,55.66
2018-09-27T01:50:43.731Z,55.53
2018-09-27T01:56:15.566Z,53.12
2018-09-27T02:02:09.383Z,54.85
2018-09-27T02:11:09.579Z,55.26
2018-09-27T02:25:39.057Z,55.15
2018-09-27T02:31:36.502Z,55.20
2018-09-27T02:34:25.697Z,54.97
2018-09-27T02:43:07.503Z,54.43
2018-09-27T02:45:55.045Z,54.53
2018-09-27T02:51:30.794Z,54.72
2018-09-27T02:54:18.477Z,54.78
2018-09-27T02:57:05.900Z,52.67
2018-09-27T03:02:56.374Z,54.68
2018-09-27T03:14:45.279Z,54.94
2018-09-27T03:20:24.853Z,52.04
2018-09-27T03:23:08.946Z,53.71
2018-09-27T03:28:44.441Z,54.44
2018-09-27T03:34:46.326Z,54.83
2018-09-27T03:37:23.976Z,55.06
2018-09-27T03:49:14.715Z,55.31
2018-09-27T03:55:23.881Z,55.56
2018-09-27T04:01:12.759Z,55.77
2018-09-27T04:07:03.809Z,54.00
2018-09-27T04:13:07.997Z,53.49
2018-09-27T04:15:57.066Z,55.38
2018-09-27T04:25:17.975Z,56.31
2018-09-27T04:28:14.855Z,56.65
2018-09-27T04:30:53.760Z,55.43
2018-09-27T04:39:57.745Z,57.49
2018-09-27T04:42:48.045Z,57.64
2018-09-27T04:45:38.219Z,57.95
2018-09-27T04:51:52.428Z,58.49
2018-09-27T05:03:35.693Z,58.75
2018-09-27T05:06:31.381Z,58.74
2018-09-27T05:09:18.790Z,58.99
2018-09-27T05:15:39.303Z,59.23
2018-09-27T05:18:27.571Z,59.41
2018-09-27T05:21:15.010Z,59.44
2018-09-27T05:27:09.003Z,59.86
2018-09-27T05:29:56.888Z,59.82
2018-09-27T05:39:10.093Z,59.90
2018-09-27T05:45:19.231Z,60.05
2018-09-27T05:48:08.514Z,59.93
2018-09-27T05:51:14.080Z,59.75
2018-09-27T06:03:35.552Z,59.29
2018-09-27T06:06:24.936Z,59.23
2018-09-27T06:09:12.968Z,58.86
2018-09-27T06:12:08.317Z,56.66
2018-09-27T06:24:14.961Z,58.02
2018-09-27T06:27:02.531Z,58.11
2018-09-27T06:32:56.064Z,57.76
2018-09-27T06:35:44.655Z,57.56
2018-09-27T06:38:32.619Z,57.61
2018-09-27T06:41:21.134Z,57.41
2018-09-27T06:44:09.173Z,57.51
2018-09-27T06:46:56.713Z,57.66
2018-09-27T06:49:52.139Z,57.62
2018-09-27T06:52:54.808Z,57.54
2018-09-27T07:01:54.543Z,57.07
2018-09-27T07:07:48.905Z,53.69
2018-09-27T07:10:40.204Z,52.62
2018-09-27T07:13:27.418Z,54.55
2018-09-27T07:19:23.011Z,55.37
2018-09-27T07:22:20.397Z,55.25
2018-09-27T07:25:08.148Z,55.02
2018-09-27T07:27:59.620Z,54.68
2018-09-27T07:30:53.639Z,54.79
2018-09-27T07:33:45.178Z,54.14
2018-09-27T07:36:32.385Z,53.89
2018-09-27T07:42:25.674Z,53.43
2018-09-27T07:48:19.888Z,53.55
2018-09-27T07:51:08.303Z,52.77
2018-09-27T07:53:56.488Z,52.68
2018-09-27T07:56:44.854Z,52.49
2018-09-27T07:59:33.219Z,48.31
2018-09-27T08:02:21.351Z,47.25
2018-09-27T08:08:14.666Z,49.18
2018-09-27T08:11:03.161Z,49.41
2018-09-27T08:13:50.965Z,49.94
2018-09-27T08:16:38.730Z,49.96
2018-09-27T08:19:26.033Z,49.95
2018-09-27T08:28:27.495Z,49.79
2018-09-27T08:31:17.049Z,49.25
2018-09-27T08:34:05.788Z,49.01
2018-09-27T08:36:53.208Z,49.77
2018-09-27T08:39:41.442Z,49.75
2018-09-27T08:42:29.078Z,49.90
2018-09-27T08:45:17.962Z,49.88
2018-09-27T08:48:05.509Z,50.30
2018-09-27T08:50:53.667Z,49.85
2018-09-27T08:53:56.022Z,49.90
2018-09-27T08:59:55.135Z,50.26
2018-09-27T09:02:44.051Z,49.88
2018-09-27T09:11:45.032Z,48.43
2018-09-27T09:14:32.839Z,48.80
2018-09-27T09:17:20.306Z,49.31
2018-09-27T09:20:13.948Z,49.37
2018-09-27T09:23:03.164Z,49.44
2018-09-27T09:25:51.692Z,49.60
2018-09-27T09:28:49.030Z,49.67
2018-09-27T09:31:36.937Z,49.92
2018-09-27T09:34:41.054Z,46.41
2018-09-27T09:37:29.262Z,49.18
2018-09-27T09:40:18.602Z,49.31
2018-09-27T09:43:10.906Z,49.06
2018-09-27T09:45:58.139Z,49.10
2018-09-27T09:48:45.974Z,45.30
2018-09-27T09:51:34.908Z,47.98
2018-09-27T09:54:23.254Z,48.71
2018-09-27T09:57:12.868Z,48.43
2018-09-27T10:03:09.643Z,48.73
2018-09-27T10:05:59.432Z,48.27
2018-09-27T10:08:48.450Z,48.71
2018-09-27T10:14:43.827Z,47.19
2018-09-27T10:20:38.899Z,48.41
2018-09-27T10:26:36.681Z,48.16
2018-09-27T10:29:26.179Z,44.91
2018-09-27T10:38:29.121Z,49.23
2018-09-27T10:41:18.228Z,49.35
2018-09-27T10:44:12.274Z,46.40
2018-09-27T10:50:21.712Z,48.48
2018-09-27T10:53:09.360Z,48.92
2018-09-27T10:59:09.486Z,50.27
2018-09-27T11:01:57.906Z,46.70
2018-09-27T11:04:45.279Z,48.96
2018-09-27T11:07:32.801Z,49.27
2018-09-27T11:10:20.414Z,49.53
2018-09-27T11:13:08.240Z,49.66
2018-09-27T11:16:18.076Z,49.73
2018-09-27T11:19:05.335Z,50.17
2018-09-27T11:21:52.644Z,50.24
2018-09-27T11:24:39.874Z,50.07
2018-09-27T11:27:27.479Z,50.35
2018-09-27T11:30:23.894Z,50.37
2018-09-27T11:36:20.505Z,49.70
2018-09-27T11:39:08.059Z,49.41
2018-09-27T11:45:14.663Z,48.43
2018-09-27T11:57:28.219Z,48.32
2018-09-27T12:00:19.009Z,49.06
2018-09-27T12:03:07.273Z,44.65
2018-09-27T12:05:55.732Z,47.39
2018-09-27T12:14:55.851Z,47.95
2018-09-27T12:17:43.575Z,43.61
2018-09-27T12:20:30.992Z,43.50
2018-09-27T12:23:18.175Z,46.06
2018-09-27T12:26:05.594Z,46.46
2018-09-27T12:28:57.498Z,43.28
2018-09-27T12:34:52.286Z,46.61
2018-09-27T12:37:42.104Z,47.25
2018-09-27T12:40:30.244Z,47.66
2018-09-27T12:43:17.687Z,47.48
2018-09-27T12:46:05.395Z,47.13
2018-09-27T12:52:24.201Z,47.38
2018-09-27T12:55:16.034Z,46.52
2018-09-27T12:58:04.919Z,47.27
2018-09-27T13:00:53.451Z,46.76
2018-09-27T13:06:52.234Z,47.10
2018-09-27T13:09:47.333Z,46.76
2018-09-27T13:12:34.236Z,46.80
2018-09-27T13:18:47.442Z,46.39
2018-09-27T13:21:46.022Z,46.57
2018-09-27T13:24:41.316Z,46.49
2018-09-27T13:27:36.623Z,46.18
2018-09-27T13:30:33.582Z,42.21
2018-09-27T13:33:30.855Z,44.32
2018-09-27T13:36:18.418Z,44.67
2018-09-27T13:38:49.987Z,45.36
2018-09-27T13:44:27.400Z,45.03
2018-09-27T13:47:16.659Z,44.89
2018-09-27T13:50:04.190Z,45.41
2018-09-27T13:52:55.816Z,45.47
2018-09-27T13:55:43.555Z,45.24
2018-09-27T13:58:32.775Z,45.17
2018-09-27T14:01:21.712Z,44.88
2018-09-27T14:03:56.673Z,45.30
2018-09-27T14:13:24.971Z,41.15
2018-09-27T14:16:14.016Z,44.06
2018-09-27T14:21:50.978Z,45.35
2018-09-27T14:27:49.314Z,42.98
2018-09-27T14:30:34.711Z,44.92
2018-09-27T14:36:46.807Z,46.01
2018-09-27T14:39:40.636Z,46.41
2018-09-27T14:45:37.515Z,46.49
2018-09-27T14:48:34.294Z,46.73
2018-09-27T14:51:21.982Z,47.03
2018-09-27T14:54:10.888Z,44.47
2018-09-27T14:56:58.929Z,43.98
2018-09-27T14:59:47.164Z,44.16
2018-09-27T15:02:41.164Z,46.18
2018-09-27T15:05:34.883Z,44.55
2018-09-27T15:08:04.812Z,46.35
2018-09-27T15:10:53.099Z,46.74
2018-09-27T15:13:41.928Z,44.99
2018-09-27T15:16:23.660Z,46.89
2018-09-27T15:19:11.620Z,47.56
2018-09-27T15:22:00.335Z,47.90
2018-09-27T15:24:48.085Z,48.15
2018-09-27T15:27:35.387Z,48.38
2018-09-27T15:30:22.858Z,48.68
2018-09-27T15:33:10.420Z,49.07
2018-09-27T15:39:13.939Z,49.52
2018-09-27T15:42:01.079Z,49.62
2018-09-27T15:44:48.713Z,50.00
2018-09-27T15:47:38.498Z,48.20
2018-09-27T15:50:10.035Z,49.73
2018-09-27T15:53:00.338Z,50.24
2018-09-27T15:55:49.887Z,48.65
2018-09-27T15:58:37.210Z,50.38
2018-09-27T16:01:26.274Z,50.74
2018-09-27T16:07:02.612Z,50.97
2018-09-27T16:12:56.090Z,51.64
2018-09-27T16:15:24.746Z,51.98
2018-09-27T16:18:12.167Z,52.22
2018-09-27T16:24:05.716Z,52.78
2018-09-27T16:27:00.839Z,52.98
2018-09-27T16:32:54.451Z,53.32
2018-09-27T16:35:41.721Z,53.63
2018-09-27T16:38:28.702Z,53.85
2018-09-27T16:44:37.678Z,54.31
2018-09-27T16:47:25.493Z,53.16
2018-09-27T16:53:19.786Z,54.93
2018-09-27T16:56:06.997Z,55.07
2018-09-27T16:58:54.542Z,55.42
2018-09-27T17:01:42.041Z,55.71
2018-09-27T17:04:29.071Z,54.49
2018-09-27T17:07:16.336Z,56.01
2018-09-27T17:10:03.898Z,56.45
2018-09-27T17:12:51.244Z,57.06
2018-09-27T17:15:38.726Z,57.36
2018-09-27T17:24:39.076Z,57.99
2018-09-27T17:27:41.677Z,58.36
2018-09-27T17:30:28.998Z,57.72
2018-09-27T17:33:16.546Z,59.15
2018-09-27T17:36:03.892Z,57.92
2018-09-27T17:38:51.521Z,59.38
2018-09-27T17:41:38.939Z,59.72
2018-09-27T17:44:26.534Z,58.57
2018-09-27T17:50:20.213Z,58.58
2018-09-27T17:53:07.749Z,60.30
2018-09-27T17:55:58.170Z,60.49
2018-09-27T18:01:49.086Z,61.14
2018-09-27T18:04:36.850Z,61.28
2018-09-27T18:07:24.072Z,61.26
2018-09-27T18:10:11.211Z,61.27
2018-09-27T18:12:59.040Z,61.18
2018-09-27T18:22:03.507Z,60.13
2018-09-27T18:24:50.829Z,61.47
2018-09-27T18:30:44.437Z,59.58
2018-09-27T18:33:31.572Z,61.12
2018-09-27T18:36:19.019Z,61.58
2018-09-27T18:39:06.344Z,61.95
2018-09-27T18:41:54.126Z,60.50
2018-09-27T18:44:41.963Z,60.10
2018-09-27T18:47:30.765Z,62.02
2018-09-27T18:50:18.205Z,62.50
2018-09-27T18:53:06.188Z,60.75
2018-09-27T18:56:12.040Z,62.37
2018-09-27T19:05:13.518Z,63.66
2018-09-27T19:11:07.428Z,64.03
2018-09-27T19:13:58.479Z,64.33
2018-09-27T19:16:45.961Z,64.52
2018-09-27T19:19:34.761Z,64.94
2018-09-27T19:22:22.318Z,65.71
2018-09-27T19:37:39.364Z,66.38
2018-09-27T19:43:35.289Z,66.77
2018-09-27T19:46:22.720Z,66.78
2018-09-27T19:49:10.107Z,66.89
2018-09-27T19:51:57.631Z,67.02
2018-09-27T19:54:45.241Z,67.26
2018-09-27T19:57:32.455Z,67.34
2018-09-27T20:06:33.456Z,67.32
2018-09-27T20:09:03.186Z,67.36
2018-09-27T20:14:38.653Z,66.35
2018-09-27T20:17:26.628Z,66.62
2018-09-27T20:20:13.790Z,66.35
2018-09-27T20:22:42.824Z,67.86
2018-09-27T20:25:30.093Z,66.42
2018-09-27T20:31:27.009Z,68.18
2018-09-27T20:34:14.086Z,69.15
2018-09-27T20:37:01.628Z,69.50
2018-09-27T20:39:49.229Z,69.68
2018-09-27T20:42:18.111Z,69.43
2018-09-27T20:45:21.802Z,69.46
2018-09-27T20:48:14.385Z,68.09
2018-09-27T20:50:42.937Z,69.08
2018-09-27T20:53:37.972Z,69.23
2018-09-27T20:56:25.394Z,67.72
2018-09-27T20:59:12.546Z,69.10
2018-09-27T21:01:59.869Z,69.75
2018-09-27T21:04:31.384Z,69.86
2018-09-27T21:07:19.010Z,70.16
2018-09-27T21:16:19.021Z,68.96
2018-09-27T21:25:18.684Z,69.88
2018-09-27T21:34:18.302Z,69.63
2018-09-27T21:37:05.879Z,69.55
2018-09-27T21:39:53.378Z,67.83
2018-09-27T21:42:41.159Z,68.74
2018-09-27T21:45:28.991Z,68.75
2018-09-27T21:47:57.599Z,68.66
2018-09-27T21:50:44.972Z,68.42
2018-09-27T21:56:21.181Z,65.10
2018-09-27T21:59:08.727Z,66.48
2018-09-27T22:01:56.290Z,66.73
2018-09-27T22:04:43.272Z,66.63
2018-09-27T22:10:42.172Z,66.35
2018-09-27T22:16:18.704Z,66.14
2018-09-27T22:19:06.307Z,65.98
2018-09-27T22:22:08.698Z,65.91
2018-09-27T22:25:03.611Z,65.71
2018-09-27T22:27:51.731Z,63.50
2018-09-27T22:30:39.949Z,62.20
2018-09-27T22:33:27.449Z,63.72
2018-09-27T22:39:21.565Z,63.44
2018-09-27T22:42:06.327Z,64.13
2018-09-27T22:48:00.139Z,63.21
2018-09-27T22:50:47.631Z,63.45
2018-09-27T22:56:41.381Z,63.49
2018-09-27T22:59:28.680Z,63.31
2018-09-27T23:02:17.730Z,63.40
2018-09-27T23:05:05.379Z,63.09
2018-09-27T23:07:53.192Z,62.80
2018-09-27T23:13:28.275Z,62.27
2018-09-27T23:16:15.695Z,62.31
2018-09-27T23:19:07.166Z,62.35
2018-09-27T23:21:54.301Z,62.54
2018-09-27T23:24:41.440Z,62.62
2018-09-27T23:27:28.765Z,62.38
2018-09-27T23:30:16.098Z,62.53
2018-09-27T23:36:11.070Z,63.09
2018-09-27T23:38:42.414Z,60.81
2018-09-27T23:41:29.900Z,59.93
2018-09-27T23:44:17.251Z,61.46
2018-09-27T23:46:47.005Z,61.85
2018-09-27T23:49:35.085Z,62.08
2018-09-27T23:55:28.959Z,62.29
2018-09-27T23:58:16.588Z,62.32
